Aviation Digital Data Service (ADDS)

Output produced by METARs form (1931 UTC 25 March 2017)
found at http://www.aviationweather.gov/adds/metars/
 
NSFA 251900Z 17003KT 9999 SCT026 26/24 Q1013
NSFA 251800Z 14003KT 9999 FEW022CB SCCT026 24/23 Q1013 RMK CB TO E
NSFA 251700Z 10005KT 9999 FEW020CB FEW022 24/23 Q1012 RMK CB TO NE
NSFA 251600Z 14004KT 9999 FEW024 24/23 Q1012
NSFA 251500Z 12003KT 9999 FEW024 24/23 Q1012 RMK DEW
NSFA 251400Z 00000KT 9999 FEW025 24/23 Q1012 RMK DEW
NSFA 251300Z 00000KT 9999 FEW024 24/24 Q1013 RMK DEW
NSFA 251200Z 12003KT 9999 FEW024 24/23 Q1013 RMK DEW
NSFA 251100Z 14004KT 9999 FEW024 24/24 Q1014 RMK DEW
NSFA 251000Z 18004KT 9999 FEW023 25/24 Q1014 RMK DEW
NSFA 250900Z 18004KT 9999 FEW023 26/24 Q1014
NSFA 250800Z 14004KT 9999 SCT022 26/24 Q1013
NSFA 250700Z 10004KT 9999 SCT022 28/24 Q1013
NSFA 250600Z 11004KT 9999 FEW020CB SCT022 28/24 Q1012 RMK CB TO NNW
NSFA 250500Z 08005KT 9999 SCT020 30/23 Q1011
NSFA 250400Z 07008KT 9999 SCT020 32/24 Q1010
NSFA 250300Z 06011KT 9999 SCT020 33/25 Q1010
NSFA 250200Z 06013KT 9999 FEW020CB SCT022 33/25 Q1010 RMK CB TO WSW
NSFA 250100Z 07011KT 9999 FEW018CB SCT022 33/25 Q1011 RMK CB TO WSW
NSFA 250000Z 06014KT 9999 SCT028 33/25 Q1012
NSFA 242300Z 07012KT 9999 SCT026 32/25 Q1012
NSFA 242200Z 09010KT 9999 SCT026 32/25 Q1013
NSFA 242100Z 09006KT 9999 SCT025 32/23 Q1014